createdAt,value
2023-01-30T00:01:33.911Z,23.95
2023-01-30T00:06:34.017Z,21.05
2023-01-30T00:09:09.218Z,23.27
2023-01-30T00:11:45.261Z,23.55
2023-01-30T00:14:16.234Z,24.02
2023-01-30T00:19:21.606Z,24.08
2023-01-30T00:21:52.427Z,25.95
2023-01-30T00:26:59.923Z,21.55
2023-01-30T00:29:28.893Z,26.65
2023-01-30T00:34:37.130Z,26.42
2023-01-30T00:37:08.449Z,26.13
2023-01-30T00:39:40.534Z,27.10
2023-01-30T00:42:28.928Z,24.63
2023-01-30T00:45:17.618Z,24.52
2023-01-30T00:47:46.237Z,24.20
2023-01-30T00:50:25.708Z,26.20
2023-01-30T00:52:53.432Z,26.40
2023-01-30T00:55:20.325Z,26.65
2023-01-30T00:57:47.038Z,25.08
2023-01-30T01:00:18.493Z,25.48
2023-01-30T01:02:52.318Z,25.35
2023-01-30T01:05:23.805Z,26.20
2023-01-30T01:07:57.369Z,25.15
2023-01-30T01:10:36.175Z,26.73
2023-01-30T01:13:11.237Z,25.73
2023-01-30T01:15:39.376Z,25.42
2023-01-30T01:18:09.434Z,25.88
2023-01-30T01:20:39.097Z,25.42
2023-01-30T01:23:09.631Z,25.15
2023-01-30T01:25:38.349Z,27.17
2023-01-30T01:28:07.217Z,27.75
2023-01-30T01:30:37.843Z,23.13
2023-01-30T01:33:05.266Z,26.52
2023-01-30T01:35:34.305Z,28.05
2023-01-30T01:38:04.097Z,27.15
2023-01-30T01:40:51.005Z,27.80
2023-01-30T01:43:24.672Z,27.08
2023-01-30T01:46:23.669Z,25.83
2023-01-30T01:48:57.749Z,27.52
2023-01-30T01:51:39.297Z,27.45
2023-01-30T01:54:20.297Z,27.23
2023-01-30T01:56:59.203Z,28.27
2023-01-30T01:59:36.854Z,29.63
2023-01-30T02:02:09.876Z,29.02
2023-01-30T02:04:59.703Z,27.15
2023-01-30T02:07:36.768Z,27.57
2023-01-30T02:10:11.885Z,28.35
2023-01-30T02:12:40.522Z,27.65
2023-01-30T02:15:09.504Z,28.80
2023-01-30T02:17:37.624Z,30.87
2023-01-30T02:20:50.191Z,24.33
2023-01-30T02:23:30.091Z,29.38
2023-01-30T02:26:03.263Z,28.55
2023-01-30T02:29:04.892Z,28.83
2023-01-30T02:31:55.472Z,29.48
2023-01-30T02:34:57.775Z,27.55
2023-01-30T02:38:08.972Z,27.00
2023-01-30T02:41:17.475Z,27.02
2023-01-30T02:44:12.620Z,26.05
2023-01-30T02:47:00.493Z,27.08
2023-01-30T02:49:50.478Z,27.15
2023-01-30T02:52:19.788Z,29.13
2023-01-30T02:54:50.522Z,27.17
2023-01-30T02:57:24.703Z,23.85
2023-01-30T03:00:00.516Z,27.33
2023-01-30T03:02:52.377Z,26.60
2023-01-30T03:08:07.892Z,25.98
2023-01-30T03:11:11.061Z,25.10
2023-01-30T03:14:05.217Z,26.88
2023-01-30T03:16:41.453Z,24.15
2023-01-30T03:19:13.408Z,28.33
2023-01-30T03:21:45.177Z,23.48
2023-01-30T03:24:24.542Z,25.77
2023-01-30T03:27:01.585Z,26.08
2023-01-30T03:29:34.913Z,23.52
2023-01-30T03:32:15.515Z,26.13
2023-01-30T03:34:43.959Z,26.73
2023-01-30T03:37:15.713Z,21.98
2023-01-30T03:39:49.333Z,27.85
2023-01-30T03:42:28.462Z,22.60
2023-01-30T03:44:56.754Z,26.23
2023-01-30T03:47:25.706Z,24.42
2023-01-30T03:49:53.679Z,25.70
2023-01-30T03:52:23.523Z,24.05
2023-01-30T03:54:51.859Z,27.02
2023-01-30T03:57:23.086Z,28.13
2023-01-30T03:59:50.406Z,27.00
2023-01-30T04:02:21.575Z,27.42
2023-01-30T04:04:57.928Z,27.30
2023-01-30T04:07:34.833Z,25.20
2023-01-30T04:10:01.809Z,27.02
2023-01-30T04:12:34.046Z,28.05
2023-01-30T04:15:04.234Z,29.65
2023-01-30T04:17:31.628Z,23.13
2023-01-30T04:20:00.191Z,28.42
2023-01-30T04:22:36.889Z,25.08
2023-01-30T04:30:16.910Z,28.10
2023-01-30T04:35:39.658Z,28.20
2023-01-30T04:38:08.137Z,24.42
2023-01-30T04:40:47.444Z,25.83
2023-01-30T04:43:14.678Z,29.88
2023-01-30T04:45:48.856Z,27.08
2023-01-30T04:48:18.417Z,27.15
2023-01-30T04:50:49.089Z,30.08
2023-01-30T04:53:26.242Z,26.48
2023-01-30T04:55:54.876Z,26.35
2023-01-30T04:58:23.945Z,26.85
2023-01-30T05:00:51.225Z,24.80
2023-01-30T05:03:17.767Z,27.23
2023-01-30T05:05:46.633Z,24.65
2023-01-30T05:08:13.486Z,23.95
2023-01-30T05:10:40.000Z,24.38
2023-01-30T05:13:06.553Z,23.05
2023-01-30T05:15:36.438Z,23.33
2023-01-30T05:18:02.987Z,24.38
2023-01-30T05:20:29.562Z,22.75
2023-01-30T05:22:56.056Z,22.13
2023-01-30T05:25:22.493Z,23.63
2023-01-30T05:27:48.885Z,23.88
2023-01-30T05:30:15.538Z,22.73
2023-01-30T05:32:43.046Z,23.77
2023-01-30T05:35:09.757Z,23.27
2023-01-30T05:37:37.805Z,24.52
2023-01-30T05:40:04.927Z,24.10
2023-01-30T05:42:31.357Z,23.75
2023-01-30T05:44:57.770Z,23.30
2023-01-30T05:47:24.220Z,24.48
2023-01-30T05:49:50.612Z,24.58
2023-01-30T05:52:17.104Z,24.58
2023-01-30T05:54:43.576Z,25.60
2023-01-30T05:57:10.003Z,27.17
2023-01-30T05:59:36.435Z,25.88
2023-01-30T06:02:02.941Z,26.92
2023-01-30T06:04:29.358Z,27.75
2023-01-30T06:06:55.799Z,26.15
2023-01-30T06:09:22.227Z,26.70
2023-01-30T06:11:48.611Z,25.90
2023-01-30T06:14:15.001Z,26.08
2023-01-30T06:16:41.526Z,24.58
2023-01-30T06:19:08.472Z,25.23
2023-01-30T06:21:34.902Z,24.58
2023-01-30T06:24:02.199Z,24.65
2023-01-30T06:26:28.622Z,22.98
2023-01-30T06:28:55.098Z,23.30
2023-01-30T06:31:21.512Z,22.35
2023-01-30T06:33:49.385Z,21.50
2023-01-30T06:36:15.857Z,22.85
2023-01-30T06:38:42.312Z,22.08
2023-01-30T06:41:08.790Z,20.48
2023-01-30T06:43:35.273Z,20.50
2023-01-30T06:46:01.770Z,21.88
2023-01-30T06:48:28.302Z,20.92
2023-01-30T06:50:54.849Z,19.25
2023-01-30T06:53:22.261Z,22.30
2023-01-30T06:55:48.725Z,21.48
2023-01-30T06:58:15.543Z,18.63
2023-01-30T07:00:43.047Z,20.63
2023-01-30T07:03:14.493Z,20.08
2023-01-30T07:05:41.920Z,19.92
2023-01-30T07:08:08.433Z,18.95
2023-01-30T07:10:35.813Z,20.40
2023-01-30T07:13:03.155Z,18.50
2023-01-30T07:15:29.792Z,18.73
2023-01-30T07:17:56.300Z,19.15
2023-01-30T07:20:22.787Z,18.13
2023-01-30T07:22:53.694Z,18.02
2023-01-30T07:25:21.247Z,17.15
2023-01-30T07:28:03.415Z,18.33
2023-01-30T07:30:32.806Z,17.55
2023-01-30T07:33:00.223Z,18.98
2023-01-30T07:35:28.831Z,16.58
2023-01-30T07:37:55.507Z,16.48
2023-01-30T07:40:22.478Z,15.68
2023-01-30T07:43:01.190Z,15.43
2023-01-30T07:45:41.961Z,16.08
2023-01-30T07:48:10.860Z,13.40
2023-01-30T07:50:37.432Z,13.13
2023-01-30T07:53:08.516Z,10.90
2023-01-30T07:55:35.101Z,10.77
2023-01-30T07:58:01.586Z,10.20
2023-01-30T08:00:28.171Z,9.38
2023-01-30T08:02:56.926Z,8.32
2023-01-30T08:05:23.431Z,8.60
2023-01-30T08:07:49.874Z,7.28
2023-01-30T08:10:17.121Z,6.18
2023-01-30T08:12:43.963Z,5.15
2023-01-30T08:15:11.059Z,6.13
2023-01-30T08:17:37.748Z,7.32
2023-01-30T08:20:04.915Z,5.82
2023-01-30T08:22:31.362Z,5.85
2023-01-30T08:24:57.925Z,4.50
2023-01-30T08:27:24.369Z,4.63
2023-01-30T08:29:50.907Z,4.22
2023-01-30T08:32:17.463Z,3.72
2023-01-30T08:34:43.860Z,4.05
2023-01-30T08:37:10.305Z,4.70
2023-01-30T08:39:37.355Z,3.97
2023-01-30T08:42:04.062Z,3.55
2023-01-30T08:44:30.483Z,4.03
2023-01-30T08:46:56.892Z,3.65
2023-01-30T08:49:23.318Z,3.90
2023-01-30T08:51:49.776Z,3.75
2023-01-30T08:54:18.657Z,3.72
2023-01-30T08:56:45.132Z,3.92
2023-01-30T08:59:11.652Z,5.28
2023-01-30T09:01:38.443Z,3.53
2023-01-30T09:04:05.180Z,2.95
2023-01-30T09:06:31.974Z,3.03
2023-01-30T09:09:00.226Z,3.20
2023-01-30T09:11:26.793Z,2.97
2023-01-30T09:13:56.049Z,2.70
2023-01-30T09:16:22.545Z,3.05
2023-01-30T09:18:49.065Z,3.88
2023-01-30T09:21:15.621Z,3.47
2023-01-30T09:23:42.263Z,2.75
2023-01-30T09:26:08.780Z,3.17
2023-01-30T09:28:35.801Z,3.63
2023-01-30T09:31:03.053Z,3.20
2023-01-30T09:33:29.688Z,3.10
2023-01-30T09:35:56.523Z,3.38
2023-01-30T09:38:23.053Z,2.90
2023-01-30T09:41:25.257Z,4.05
2023-01-30T09:44:01.035Z,3.22
2023-01-30T09:47:13.901Z,3.25
2023-01-30T09:49:56.355Z,2.90
2023-01-30T09:52:25.979Z,4.55
2023-01-30T09:54:57.055Z,2.95
2023-01-30T09:57:25.136Z,3.65
2023-01-30T09:59:54.529Z,3.72
2023-01-30T10:02:39.889Z,4.20
2023-01-30T10:05:06.855Z,2.78
2023-01-30T10:07:39.985Z,4.25
2023-01-30T10:10:34.153Z,3.42
2023-01-30T10:13:23.151Z,3.13
2023-01-30T10:15:57.053Z,4.03
2023-01-30T10:19:01.850Z,3.70
2023-01-30T10:21:47.611Z,3.90
2023-01-30T10:24:42.283Z,3.28
2023-01-30T10:27:12.230Z,2.88
2023-01-30T10:29:40.366Z,3.10
2023-01-30T10:32:14.009Z,3.85
2023-01-30T10:34:43.233Z,3.20
2023-01-30T10:37:14.487Z,3.80
2023-01-30T10:40:04.431Z,3.33
2023-01-30T10:42:41.330Z,4.07
2023-01-30T10:45:20.306Z,3.22
2023-01-30T10:48:11.170Z,4.57
2023-01-30T10:50:59.937Z,2.80
2023-01-30T10:53:33.111Z,3.72
2023-01-30T10:56:20.838Z,3.22
2023-01-30T10:59:00.331Z,4.05
2023-01-30T11:01:35.183Z,3.72
2023-01-30T11:04:15.267Z,2.67
2023-01-30T11:06:42.157Z,3.60
2023-01-30T11:09:08.851Z,3.42
2023-01-30T11:11:54.319Z,4.18
2023-01-30T11:14:21.284Z,3.67
2023-01-30T11:16:52.057Z,4.15
2023-01-30T11:19:23.696Z,4.50
2023-01-30T11:21:52.420Z,2.88
2023-01-30T11:24:30.537Z,4.10
2023-01-30T11:27:10.401Z,3.80
2023-01-30T11:29:39.628Z,4.35
2023-01-30T11:32:12.441Z,4.13
2023-01-30T11:34:39.365Z,3.47
2023-01-30T11:37:15.236Z,3.80
2023-01-30T11:39:49.608Z,3.38
2023-01-30T11:42:19.586Z,4.13
2023-01-30T11:44:46.113Z,3.58
2023-01-30T11:47:25.448Z,4.55
2023-01-30T11:51:32.008Z,4.03
2023-01-30T11:52:45.661Z,3.97
2023-01-30T11:55:15.457Z,4.65
2023-01-30T11:57:44.863Z,2.90
2023-01-30T12:00:19.525Z,3.42
2023-01-30T12:02:48.349Z,3.10
2023-01-30T12:05:25.915Z,2.58
2023-01-30T12:07:53.083Z,3.00
2023-01-30T12:10:26.523Z,2.70
2023-01-30T12:12:55.112Z,2.90
2023-01-30T12:15:25.410Z,2.72
2023-01-30T12:18:18.843Z,2.90
2023-01-30T12:20:54.549Z,4.20
2023-01-30T12:23:39.891Z,4.35
2023-01-30T12:26:55.569Z,3.22
2023-01-30T12:29:53.949Z,3.67
2023-01-30T12:32:24.962Z,2.97
2023-01-30T12:37:42.121Z,2.42
2023-01-30T12:40:35.283Z,2.95
2023-01-30T12:43:23.347Z,2.60
2023-01-30T12:45:59.727Z,2.65
2023-01-30T12:49:07.806Z,2.50
2023-01-30T12:51:50.539Z,3.55
2023-01-30T12:54:35.810Z,3.97
2023-01-30T12:57:17.394Z,3.00
2023-01-30T13:00:22.207Z,2.70
2023-01-30T13:03:10.104Z,4.10
2023-01-30T13:05:39.622Z,3.95
2023-01-30T13:08:31.028Z,3.00
2023-01-30T13:11:23.713Z,4.97
2023-01-30T13:13:54.895Z,4.05
2023-01-30T13:16:40.064Z,3.70
2023-01-30T13:19:41.152Z,3.67
2023-01-30T13:22:14.027Z,4.43
2023-01-30T13:25:19.855Z,3.35
2023-01-30T13:27:54.144Z,3.55
2023-01-30T13:30:21.351Z,3.20
2023-01-30T13:32:50.176Z,3.25
2023-01-30T13:35:34.391Z,3.13
2023-01-30T13:38:01.204Z,4.32
2023-01-30T13:40:34.458Z,4.15
2023-01-30T13:43:07.241Z,3.53
2023-01-30T13:45:36.038Z,3.72
2023-01-30T13:48:05.559Z,3.88
2023-01-30T13:51:24.479Z,3.08
2023-01-30T13:54:06.196Z,3.40
2023-01-30T13:56:43.486Z,3.10
2023-01-30T13:59:19.225Z,3.45
2023-01-30T14:02:04.102Z,4.00
2023-01-30T14:04:30.722Z,3.00
2023-01-30T14:07:10.161Z,3.45
2023-01-30T14:09:37.323Z,3.42
2023-01-30T14:12:04.296Z,3.83
2023-01-30T14:14:33.849Z,3.45
2023-01-30T14:17:13.281Z,3.10
2023-01-30T14:19:40.853Z,4.05
2023-01-30T14:22:21.091Z,3.97
2023-01-30T14:25:25.013Z,4.35
2023-01-30T14:28:14.651Z,3.58
2023-01-30T14:30:52.133Z,3.35
2023-01-30T14:33:21.652Z,3.90
2023-01-30T14:35:54.156Z,3.60
2023-01-30T14:38:21.573Z,4.30
2023-01-30T14:40:48.808Z,3.85
2023-01-30T14:43:15.288Z,3.20
2023-01-30T14:45:56.966Z,4.53
2023-01-30T14:48:26.533Z,4.10
2023-01-30T14:51:33.265Z,3.13
2023-01-30T14:54:12.932Z,3.40
2023-01-30T14:56:48.788Z,4.10
2023-01-30T14:59:28.675Z,3.42
2023-01-30T15:02:04.615Z,4.80
2023-01-30T15:04:34.003Z,4.07
2023-01-30T15:07:04.810Z,3.10
2023-01-30T15:09:31.867Z,3.80
2023-01-30T15:12:16.735Z,3.50
2023-01-30T15:14:57.318Z,3.65
2023-01-30T15:18:08.440Z,4.35
2023-01-30T15:20:47.287Z,3.80
2023-01-30T15:23:46.498Z,3.03
2023-01-30T15:26:25.597Z,3.35
2023-01-30T15:28:59.021Z,3.25
2023-01-30T15:31:26.454Z,3.42
2023-01-30T15:33:54.407Z,2.70
2023-01-30T15:36:25.068Z,4.78
2023-01-30T15:39:06.201Z,4.22
2023-01-30T15:41:40.453Z,4.43
2023-01-30T15:44:14.408Z,2.95
2023-01-30T15:47:02.117Z,4.22
2023-01-30T15:49:40.719Z,3.55
2023-01-30T15:52:14.177Z,3.50
2023-01-30T15:54:40.666Z,5.50
2023-01-30T15:57:13.272Z,3.72
2023-01-30T15:59:40.333Z,3.92
2023-01-30T16:02:21.529Z,3.55
2023-01-30T16:04:48.150Z,4.45
2023-01-30T16:07:25.006Z,3.15
2023-01-30T16:10:06.883Z,6.25
2023-01-30T16:12:34.074Z,3.45
2023-01-30T16:15:17.105Z,3.67
2023-01-30T16:17:54.182Z,3.42
2023-01-30T16:20:21.024Z,4.28
2023-01-30T16:22:48.147Z,3.45
2023-01-30T16:25:26.399Z,3.17
2023-01-30T16:27:53.720Z,4.00
2023-01-30T16:30:23.156Z,2.85
2023-01-30T16:32:51.715Z,3.50
2023-01-30T16:35:27.085Z,3.40
2023-01-30T16:37:55.914Z,4.13
2023-01-30T16:40:45.040Z,3.03
2023-01-30T16:43:14.512Z,3.58
2023-01-30T16:45:47.123Z,3.15
2023-01-30T16:48:16.713Z,3.30
2023-01-30T16:50:46.758Z,3.70
2023-01-30T16:53:18.706Z,3.73
2023-01-30T16:56:02.379Z,3.10
2023-01-30T16:58:32.572Z,3.80
2023-01-30T17:01:01.237Z,4.07
2023-01-30T17:03:33.675Z,4.10
2023-01-30T17:06:12.407Z,3.88
2023-01-30T17:08:52.164Z,4.20
2023-01-30T17:11:29.273Z,3.70
2023-01-30T17:14:14.402Z,4.72
2023-01-30T17:16:42.950Z,3.92
2023-01-30T17:19:10.149Z,4.50
2023-01-30T17:21:44.210Z,3.80
2023-01-30T17:24:14.383Z,4.07
2023-01-30T17:26:41.132Z,4.43
2023-01-30T17:29:23.134Z,3.83
2023-01-30T17:31:56.956Z,3.70
2023-01-30T17:34:24.535Z,3.95
2023-01-30T17:36:52.574Z,5.30
2023-01-30T17:39:22.388Z,4.35
2023-01-30T17:41:49.381Z,6.07
2023-01-30T17:44:16.037Z,4.72
2023-01-30T17:46:49.266Z,4.18
2023-01-30T17:49:15.747Z,4.55
2023-01-30T17:51:42.805Z,4.07
2023-01-30T17:54:10.804Z,4.55
2023-01-30T17:56:38.580Z,4.15
2023-01-30T17:59:06.991Z,4.75
2023-01-30T18:01:36.002Z,4.30
2023-01-30T18:04:02.490Z,4.00
2023-01-30T18:06:31.932Z,4.80
2023-01-30T18:09:01.076Z,3.92
2023-01-30T18:11:27.598Z,4.43
2023-01-30T18:13:54.032Z,5.85
2023-01-30T18:16:24.074Z,4.03
2023-01-30T18:18:50.652Z,4.23
2023-01-30T18:21:17.699Z,5.15
2023-01-30T18:23:44.223Z,4.72
2023-01-30T18:26:12.392Z,3.33
2023-01-30T18:28:39.627Z,5.10
2023-01-30T18:31:06.235Z,3.50
2023-01-30T18:33:36.197Z,3.30
2023-01-30T18:36:06.683Z,3.50
2023-01-30T18:38:36.049Z,4.15
2023-01-30T18:41:11.153Z,3.88
2023-01-30T18:43:37.664Z,3.83
2023-01-30T18:46:06.604Z,3.70
2023-01-30T18:48:36.615Z,3.47
2023-01-30T18:51:14.869Z,3.88
2023-01-30T18:53:42.840Z,4.47
2023-01-30T18:56:11.056Z,5.15
2023-01-30T18:58:38.094Z,4.38
2023-01-30T19:01:16.742Z,4.15
2023-01-30T19:03:43.435Z,4.40
2023-01-30T19:06:11.877Z,3.85
2023-01-30T19:08:38.565Z,4.85
2023-01-30T19:11:28.720Z,3.90
2023-01-30T19:13:55.396Z,5.27
2023-01-30T19:16:23.471Z,4.45
2023-01-30T19:18:50.411Z,4.15
2023-01-30T19:21:17.580Z,4.72
2023-01-30T19:23:44.370Z,3.38
2023-01-30T19:26:10.949Z,4.63
2023-01-30T19:28:37.995Z,4.10
2023-01-30T19:31:09.416Z,4.68
2023-01-30T19:33:36.323Z,4.38
2023-01-30T19:36:12.844Z,4.22
2023-01-30T19:38:39.630Z,4.45
2023-01-30T19:41:11.340Z,5.72
2023-01-30T19:43:38.675Z,4.05
2023-01-30T19:46:06.013Z,4.43
2023-01-30T19:48:35.779Z,4.70
2023-01-30T19:51:16.912Z,4.38
2023-01-30T19:53:44.901Z,4.20
2023-01-30T19:56:12.609Z,4.20
2023-01-30T19:58:40.360Z,5.25
2023-01-30T20:01:12.010Z,4.63
2023-01-30T20:03:39.426Z,4.35
2023-01-30T20:06:27.503Z,5.15
2023-01-30T20:08:56.376Z,4.85
2023-01-30T20:11:22.780Z,6.47
2023-01-30T20:13:50.397Z,5.40
2023-01-30T20:16:20.357Z,5.75
2023-01-30T20:18:48.580Z,5.25
2023-01-30T20:21:19.578Z,5.53
2023-01-30T20:26:16.407Z,5.30
2023-01-30T20:28:43.233Z,4.55
2023-01-30T20:31:15.705Z,6.47
2023-01-30T20:33:42.649Z,4.43
2023-01-30T20:36:11.986Z,4.20
2023-01-30T20:38:40.545Z,4.50
2023-01-30T20:41:09.354Z,4.07
2023-01-30T20:43:40.417Z,4.53
2023-01-30T20:46:17.951Z,4.68
2023-01-30T20:48:44.505Z,4.60
2023-01-30T20:51:17.049Z,5.07
2023-01-30T20:53:48.497Z,3.67
2023-01-30T20:56:15.131Z,3.75
2023-01-30T20:58:41.686Z,4.25
2023-01-30T21:01:17.603Z,3.78
2023-01-30T21:03:45.572Z,6.18
2023-01-30T21:06:12.058Z,4.53
2023-01-30T21:08:39.449Z,4.40
2023-01-30T21:11:08.289Z,4.95
2023-01-30T21:13:35.644Z,4.80
2023-01-30T21:16:07.871Z,4.97
2023-01-30T21:18:37.070Z,4.75
2023-01-30T21:21:03.893Z,3.95
2023-01-30T21:23:31.854Z,4.43
2023-01-30T21:26:06.804Z,4.05
2023-01-30T21:28:36.950Z,4.70
2023-01-30T21:31:05.928Z,4.97
2023-01-30T21:33:32.590Z,3.97
2023-01-30T21:35:59.965Z,4.00
2023-01-30T21:38:46.018Z,4.97
2023-01-30T21:41:40.190Z,6.15
2023-01-30T21:44:06.998Z,4.35
2023-01-30T21:46:39.061Z,5.25
2023-01-30T21:49:06.885Z,4.65
2023-01-30T21:51:33.597Z,3.08
2023-01-30T21:54:01.918Z,4.80
2023-01-30T21:56:28.343Z,4.22
2023-01-30T21:58:56.614Z,4.28
2023-01-30T22:01:23.101Z,5.53
2023-01-30T22:03:49.585Z,3.47
2023-01-30T22:06:16.045Z,3.78
2023-01-30T22:08:42.574Z,3.60
2023-01-30T22:11:11.341Z,4.97
2023-01-30T22:13:39.086Z,4.35
2023-01-30T22:16:13.532Z,3.67
2023-01-30T22:18:41.098Z,4.63
2023-01-30T22:21:10.820Z,3.38
2023-01-30T22:23:40.590Z,4.03
2023-01-30T22:26:07.965Z,3.72
2023-01-30T22:28:38.501Z,4.30
2023-01-30T22:31:18.658Z,4.93
2023-01-30T22:33:51.140Z,4.82
2023-01-30T22:36:18.205Z,7.47
2023-01-30T22:38:46.348Z,6.22
2023-01-30T22:41:15.676Z,4.32
2023-01-30T22:43:47.453Z,3.83
2023-01-30T22:46:14.997Z,3.63
2023-01-30T22:48:42.186Z,4.25
2023-01-30T22:51:23.124Z,5.32
2023-01-30T22:53:52.060Z,4.25
2023-01-30T22:56:21.444Z,5.10
2023-01-30T22:58:48.449Z,5.95
2023-01-30T23:01:16.517Z,5.43
2023-01-30T23:03:44.374Z,4.93
2023-01-30T23:06:12.901Z,5.50
2023-01-30T23:08:41.025Z,5.57
2023-01-30T23:11:15.418Z,5.90
2023-01-30T23:13:43.382Z,4.90
2023-01-30T23:16:10.109Z,6.18
2023-01-30T23:18:55.264Z,5.97
2023-01-30T23:21:36.118Z,5.43
2023-01-30T23:24:14.055Z,5.47
2023-01-30T23:26:45.709Z,5.47
2023-01-30T23:29:14.713Z,5.80
2023-01-30T23:31:42.040Z,5.13
2023-01-30T23:34:12.945Z,5.93
2023-01-30T23:36:40.026Z,5.15
2023-01-30T23:39:06.516Z,7.35
2023-01-30T23:41:34.385Z,5.75
2023-01-30T23:44:01.127Z,6.28
2023-01-30T23:46:30.841Z,4.63
2023-01-30T23:48:59.811Z,5.65
2023-01-30T23:51:28.538Z,4.90
2023-01-30T23:53:55.461Z,5.68
2023-01-30T23:56:23.911Z,5.30
2023-01-30T23:58:50.646Z,4.90
